Terminal Aerodrome Forecast
Issued by NWS

Home | Current Version | Previous Version | Text Only | Print | Product List | Glossary On
Versions: 1 2 3 4 5 6 7 8 9 10 11 12 13 14 15 16 17 18
000
FTAK31 PAJN 191700 RRA
TAFAWG
TAF
PAWG 191742Z 1918/2018 11007KT P6SM -SHRA SCT020 BKN035 OVC050
      TEMPO 1918/1922 21014G22KT 5SM SHRA BR BKN020
     FM200000 14006KT P6SM -SHRA SCT025 OVC040
     FM200600 10008KT 6SM -RA BR SCT015 OVC030
     FM201000 11018G28KT 5SM RA BR SCT015 OVC025
      AMD LTD TO CLD VIS AND WIND 2006/2015=

USA.gov is the U.S. government's official web portal to all federal, state and local government web resources and services.